Time;durP1;ratioP1;P1;durP2;ratioP2;P2;SDS_P1;SDS_P2;PMS_P1;PMS_P2;Temp;Humidity;BMP_temperature;BMP_pressure;BME280_temperature;BME280_humidity;BME280_pressure;Samples;Min_cycle;Max_cycle;Signal;HPM_P1;HPM_P2
2022/07/30 00:01:50;;;;;;;8.80;7.88;;;;;;;26.03;64.26;99986.69;4991393;28;20046;-72
2022/07/30 00:04:16;;;;;;;10.00;8.95;;;;;;;26.07;64.69;100006.28;4989922;28;20030;-67
2022/07/30 00:06:41;;;;;;;11.63;8.55;;;;;;;26.04;64.67;100004.00;4988788;28;20034;-67
2022/07/30 00:09:07;;;;;;;9.82;8.93;;;;;;;26.00;64.76;100002.81;4989363;28;20042;-66
2022/07/30 00:11:33;;;;;;;11.70;8.68;;;;;;;26.00;65.07;100000.94;4989161;28;20054;-68
2022/07/30 00:13:58;;;;;;;9.55;8.48;;;;;;;25.96;65.18;100005.19;4989254;28;20101;-67
2022/07/30 00:16:24;;;;;;;9.90;8.93;;;;;;;25.96;65.46;100004.34;4989036;28;20117;-66
2022/07/30 00:18:49;;;;;;;10.23;9.00;;;;;;;25.87;65.89;99992.06;4989499;28;20038;-66
2022/07/30 00:21:15;;;;;;;11.55;8.65;;;;;;;25.92;66.00;100011.44;4988999;28;20108;-67
2022/07/30 00:23:40;;;;;;;11.23;9.00;;;;;;;25.71;66.36;99998.28;4989330;28;20089;-66
2022/07/30 00:26:06;;;;;;;12.43;9.68;;;;;;;25.80;66.62;100016.91;4988618;28;20030;-67
2022/07/30 00:28:31;;;;;;;10.25;9.23;;;;;;;25.70;66.95;100002.94;4988999;28;20030;-67
2022/07/30 00:30:57;;;;;;;13.88;9.68;;;;;;;25.65;67.42;100008.34;4989228;28;20561;-67
2022/07/30 00:33:22;;;;;;;11.88;9.48;;;;;;;25.58;67.83;100009.53;4989073;28;20038;-67
2022/07/30 00:35:48;;;;;;;10.55;9.38;;;;;;;25.53;68.10;100012.13;4990244;28;20477;-72
2022/07/30 00:38:13;;;;;;;10.95;9.77;;;;;;;25.42;68.46;99999.25;4989883;28;20109;-73
2022/07/30 00:40:39;;;;;;;13.50;10.02;;;;;;;25.42;68.69;100015.72;4990014;28;20113;-73
2022/07/30 00:43:05;;;;;;;11.18;9.70;;;;;;;25.27;68.97;99996.94;4988527;28;20030;-72
2022/07/30 00:45:31;;;;;;;10.80;9.40;;;;;;;25.31;69.33;100013.81;4990146;28;20085;-72
2022/07/30 00:48:00;;;;;;;13.52;9.20;;;;;;;25.25;69.63;100006.50;4989902;28;20043;-72
2022/07/30 00:50:26;;;;;;;14.18;9.73;;;;;;;25.22;69.79;100015.19;4986299;28;20034;-72
2022/07/30 00:52:52;;;;;;;11.43;10.23;;;;;;;25.16;70.21;100013.41;4988314;28;20042;-72
2022/07/30 00:55:17;;;;;;;13.32;10.20;;;;;;;25.12;70.31;100010.28;4989082;28;20026;-72
2022/07/30 00:57:43;;;;;;;11.43;9.60;;;;;;;24.99;70.34;99995.94;4989850;28;20489;-71
2022/07/30 01:00:12;;;;;;;12.70;9.65;;;;;;;25.05;70.39;100014.22;4989676;28;20049;-71
2022/07/30 01:02:38;;;;;;;13.88;9.38;;;;;;;24.98;70.17;100013.50;4988937;28;20022;-66
2022/07/30 01:05:04;;;;;;;12.50;9.57;;;;;;;24.93;70.42;100016.94;4988443;28;20482;-67
2022/07/30 01:07:30;;;;;;;10.00;9.00;;;;;;;24.92;70.16;100017.19;4988989;28;20026;-68
2022/07/30 01:09:55;;;;;;;8.95;8.05;;;;;;;24.88;69.92;100018.69;4989222;28;20088;-68
2022/07/30 01:12:23;;;;;;;11.95;8.90;;;;;;;24.83;69.58;100010.34;4988385;28;20062;-67
2022/07/30 01:14:49;;;;;;;9.25;8.45;;;;;;;24.74;69.14;99993.38;4986182;28;20031;-68
2022/07/30 01:17:15;;;;;;;10.20;8.88;;;;;;;24.79;69.15;100009.13;4988426;28;20778;-67
2022/07/30 01:19:47;;;;;;;9.15;8.25;;;;;;;24.71;68.95;100006.72;4992684;28;20540;-67
2022/07/30 01:22:25;;;;;;;9.82;8.10;;;;;;;24.75;68.70;100013.41;4992607;28;20110;-67
2022/07/30 01:25:03;;;;;;;11.57;8.43;;;;;;;24.74;68.49;100017.22;4992714;28;20026;-66
2022/07/30 01:27:34;;;;;;;9.65;8.70;;;;;;;24.63;68.54;99999.59;4992432;28;20037;-67
2022/07/30 01:30:04;;;;;;;12.32;8.85;;;;;;;24.69;68.68;100008.88;4992204;28;20023;-67
2022/07/30 01:32:32;;;;;;;8.77;7.88;;;;;;;24.67;68.39;100017.34;4992277;28;20080;-67
2022/07/30 01:34:59;;;;;;;9.45;8.45;;;;;;;24.67;68.57;100011.00;4992046;28;20528;-67
2022/07/30 01:37:26;;;;;;;8.98;8.15;;;;;;;24.59;68.70;100014.03;4992113;28;20049;-67
2022/07/30 01:39:53;;;;;;;11.10;8.85;;;;;;;24.59;68.71;100011.28;4991345;28;20500;-68
2022/07/30 01:42:22;;;;;;;10.55;8.30;;;;;;;24.44;69.10;99998.00;4992261;28;20025;-66
2022/07/30 01:44:49;;;;;;;9.23;8.32;;;;;;;24.40;69.20;100000.38;4991917;28;20037;-67
2022/07/30 01:47:16;;;;;;;9.77;8.10;;;;;;;24.46;69.26;100015.06;4990760;28;20026;-67
2022/07/30 01:49:44;;;;;;;9.75;8.68;;;;;;;24.43;69.49;100004.53;4991988;28;20485;-67
2022/07/30 01:52:11;;;;;;;9.73;8.75;;;;;;;24.45;69.16;100007.91;4991763;28;20110;-66
2022/07/30 01:54:38;;;;;;;9.30;8.40;;;;;;;24.35;69.33;99985.69;4992088;28;20168;-66
2022/07/30 01:57:05;;;;;;;10.18;9.25;;;;;;;24.43;69.35;99999.06;4991835;28;20030;-67
2022/07/30 01:59:33;;;;;;;9.52;8.13;;;;;;;24.43;69.11;99999.06;4991241;28;20481;-67
2022/07/30 02:01:59;;;;;;;8.88;7.97;;;;;;;24.43;69.25;99988.94;4991882;28;20107;-66
2022/07/30 02:04:26;;;;;;;8.77;7.97;;;;;;;24.35;69.17;99981.03;4991787;28;20112;-66
2022/07/30 02:07:21;;;;;;;9.10;7.97;;;;;;;24.46;68.85;99984.88;4991885;28;20030;-67
2022/07/30 02:10:12;;;;;;;10.02;8.20;;;;;;;24.45;68.79;99983.22;4982814;28;20081;-66
2022/07/30 02:12:47;;;;;;;7.95;7.15;;;;;;;24.47;68.74;99969.28;4979642;28;20050;-66
2022/07/30 02:15:27;;;;;;;9.35;7.75;;;;;;;24.47;68.57;99963.81;4991527;28;20041;-67
2022/07/30 02:18:20;;;;;;;11.05;7.80;;;;;;;24.46;68.25;99954.72;4991592;28;20073;-66
2022/07/30 02:20:59;;;;;;;9.77;8.75;;;;;;;24.48;67.90;99949.00;4990466;28;20125;-67
2022/07/30 02:23:27;;;;;;;11.07;8.45;;;;;;;24.50;67.88;99944.94;4992049;28;20072;-72
2022/07/30 02:25:53;;;;;;;11.23;8.27;;;;;;;24.49;67.60;99926.84;4992822;28;20117;-72
2022/07/30 02:28:21;;;;;;;8.85;7.90;;;;;;;24.47;67.63;99925.41;4992430;28;20030;-72
2022/07/30 02:30:51;;;;;;;8.38;7.57;;;;;;;24.34;67.34;99896.25;4991749;28;20560;-72
2022/07/30 02:33:20;;;;;;;8.82;7.70;;;;;;;24.42;67.12;99910.50;4991998;28;20034;-72
2022/07/30 02:35:46;;;;;;;10.73;7.13;;;;;;;24.45;66.84;99907.25;4991829;28;20065;-71
2022/07/30 02:38:16;;;;;;;8.77;7.35;;;;;;;24.45;66.71;99909.19;4992196;28;20030;-71
2022/07/30 02:40:43;;;;;;;9.60;7.45;;;;;;;24.42;66.93;99905.00;4991841;28;20453;-71
2022/07/30 02:43:13;;;;;;;8.57;7.43;;;;;;;24.38;66.93;99906.53;4991807;28;20045;-72
2022/07/30 02:45:40;;;;;;;11.25;7.43;;;;;;;24.35;66.52;99898.78;4991688;28;20039;-72
2022/07/30 02:48:09;;;;;;;11.85;6.32;;;;;;;24.35;66.45;99896.03;4991894;28;20034;-72
2022/07/30 02:50:35;;;;;;;8.85;7.00;;;;;;;24.22;66.42;99871.56;4992300;28;20035;-72
2022/07/30 02:53:05;;;;;;;10.02;7.00;;;;;;;24.31;66.45;99888.50;4991905;28;20033;-72
2022/07/30 02:55:34;;;;;;;14.35;7.78;;;;;;;24.32;66.62;99893.75;4992145;28;20088;-72
2022/07/30 02:58:01;;;;;;;8.73;6.95;;;;;;;24.31;66.48;99881.13;4990672;28;20022;-72
2022/07/30 03:00:28;;;;;;;7.95;6.20;;;;;;;24.33;66.63;99883.63;4991842;28;20056;-71
2022/07/30 03:02:55;;;;;;;8.73;6.90;;;;;;;24.24;66.65;99863.09;4991845;28;20042;-72
2022/07/30 03:05:22;;;;;;;8.18;7.07;;;;;;;24.28;66.49;99872.56;4991893;28;20022;-72
2022/07/30 03:07:48;;;;;;;9.27;7.53;;;;;;;24.35;66.63;99876.03;4991782;28;20022;-71
2022/07/30 03:10:16;;;;;;;8.52;7.07;;;;;;;24.30;66.41;99873.97;4991902;28;20041;-72
2022/07/30 03:12:44;;;;;;;8.20;7.28;;;;;;;24.25;66.64;99867.53;4991540;28;20050;-71
2022/07/30 03:15:10;;;;;;;7.82;6.80;;;;;;;24.25;66.62;99860.13;4991651;28;20034;-71
2022/07/30 03:17:43;;;;;;;7.38;6.68;;;;;;;24.32;66.64;99876.50;4990439;28;20029;-71
2022/07/30 03:20:11;;;;;;;9.20;6.85;;;;;;;24.31;66.89;99880.28;4991989;28;20057;-71
2022/07/30 03:22:42;;;;;;;9.63;6.90;;;;;;;24.29;66.90;99876.94;4991964;28;20035;-72
2022/07/30 03:25:09;;;;;;;10.60;6.85;;;;;;;24.29;67.02;99876.94;4988404;28;20053;-72
2022/07/30 03:27:37;;;;;;;9.80;6.40;;;;;;;24.26;67.20;99875.53;4991728;28;20078;-72
2022/07/30 03:30:04;;;;;;;10.25;7.07;;;;;;;24.23;67.66;99877.88;4991560;28;20029;-72
2022/07/30 03:32:31;;;;;;;8.35;7.32;;;;;;;24.19;67.41;99876.69;4990938;28;20033;-72
2022/07/30 03:34:58;;;;;;;13.35;7.45;;;;;;;24.19;67.83;99896.69;4991666;28;20096;-72
2022/07/30 03:37:25;;;;;;;9.48;6.95;;;;;;;24.13;68.12;99897.66;4991359;28;20026;-72
2022/07/30 03:39:52;;;;;;;9.85;7.03;;;;;;;24.12;68.31;99895.94;4991623;28;20393;-72
2022/07/30 03:42:19;;;;;;;8.55;7.05;;;;;;;24.05;68.47;99897.09;4986424;28;20080;-72
2022/07/30 03:44:46;;;;;;;10.23;7.30;;;;;;;24.05;68.62;99897.94;4986410;28;20041;-72
2022/07/30 03:47:14;;;;;;;7.60;6.18;;;;;;;24.05;69.03;99903.44;4991358;28;20045;-72
2022/07/30 03:49:40;;;;;;;15.82;6.80;;;;;;;24.04;68.93;99892.69;4991474;28;20460;-71
2022/07/30 03:52:06;;;;;;;7.65;6.32;;;;;;;24.02;69.27;99895.66;4990738;28;20034;-66
2022/07/30 03:54:32;;;;;;;8.35;7.13;;;;;;;24.08;69.14;99908.44;4989766;28;20041;-66
2022/07/30 03:57:03;;;;;;;7.80;6.70;;;;;;;24.10;69.09;99910.97;4989667;28;20093;-67
2022/07/30 03:59:29;;;;;;;9.70;7.18;;;;;;;24.10;69.07;99897.25;4989627;28;20104;-67
2022/07/30 04:02:03;;;;;;;10.68;7.45;;;;;;;24.09;69.41;99904.63;5102517;27;20397;-67
2022/07/30 04:04:29;;;;;;;8.48;6.38;;;;;;;24.08;69.53;99916.66;5087188;28;20055;-66
2022/07/30 04:06:56;;;;;;;14.18;7.10;;;;;;;24.09;69.49;99909.28;5088102;28;20036;-68
2022/07/30 04:09:22;;;;;;;7.70;6.68;;;;;;;24.03;69.31;99893.78;5086117;28;20077;-67
2022/07/30 04:11:47;;;;;;;13.85;7.38;;;;;;;24.12;69.57;99912.38;5088337;28;20458;-67
2022/07/30 04:14:13;;;;;;;7.85;7.05;;;;;;;24.11;69.64;99902.50;5088883;28;20028;-67
2022/07/30 04:16:59;;;;;;;13.45;7.10;;;;;;;24.03;69.70;99888.28;5085541;28;20470;-68
2022/07/30 04:19:29;;;;;;;8.57;6.72;;;;;;;24.08;69.95;99892.00;5081619;28;20111;-68
2022/07/30 04:21:57;;;;;;;10.48;6.75;;;;;;;24.09;69.72;99882.72;5082132;28;20652;-68
2022/07/30 04:24:24;;;;;;;9.50;7.20;;;;;;;24.16;69.70;99893.59;5082791;28;20037;-68
2022/07/30 04:26:50;;;;;;;8.10;6.88;;;;;;;24.11;69.70;99886.06;5084008;28;20028;-68
2022/07/30 04:29:17;;;;;;;9.05;6.88;;;;;;;24.23;69.69;99895.19;5083312;28;20032;-68
2022/07/30 04:31:43;;;;;;;9.25;6.78;;;;;;;24.21;69.70;99878.13;5064345;28;20027;-69
2022/07/30 04:34:12;;;;;;;11.90;7.43;;;;;;;24.22;69.54;99887.19;5082275;28;20549;-69
2022/07/30 04:36:39;;;;;;;10.18;6.95;;;;;;;24.33;69.68;99892.69;5093116;28;20028;-68
2022/07/30 04:39:04;;;;;;;10.15;7.60;;;;;;;24.33;69.61;99880.88;5081648;28;20434;-68
2022/07/30 04:41:30;;;;;;;11.63;6.82;;;;;;;24.49;69.22;99902.16;5079308;28;20133;-67
2022/07/30 04:43:55;;;;;;;10.40;6.25;;;;;;;24.59;68.48;99901.56;5082271;28;20441;-67
2022/07/30 04:46:21;;;;;;;9.27;6.78;;;;;;;24.62;68.34;99896.47;5081718;28;20032;-68
2022/07/30 04:48:46;;;;;;;9.48;7.10;;;;;;;24.72;68.28;99904.97;5081517;28;20428;-67
2022/07/30 04:51:18;;;;;;;8.75;6.80;;;;;;;24.82;67.42;99904.41;5092370;28;20024;-67
2022/07/30 04:53:45;;;;;;;13.65;6.45;;;;;;;24.90;67.29;99901.31;5084391;28;20027;-67
2022/07/30 04:56:12;;;;;;;8.45;5.97;;;;;;;25.00;67.02;99898.81;5082797;28;20067;-67
2022/07/30 04:58:40;;;;;;;11.25;6.50;;;;;;;25.10;66.67;99907.28;5093478;28;20427;-67
2022/07/30 05:01:07;;;;;;;9.55;6.00;;;;;;;25.16;65.88;99903.59;5088582;28;20462;-68
2022/07/30 05:03:36;;;;;;;15.40;6.53;;;;;;;25.21;66.03;99903.72;5090028;28;20024;-68
2022/07/30 05:06:02;;;;;;;9.20;6.82;;;;;;;25.27;66.10;99911.81;5088633;28;20081;-69
2022/07/30 05:08:27;;;;;;;8.02;6.55;;;;;;;25.27;66.13;99903.59;5088744;28;20469;-67
2022/07/30 05:10:53;;;;;;;8.68;6.60;;;;;;;25.37;65.97;99909.34;5111700;28;20963;-68
2022/07/30 05:13:19;;;;;;;9.15;7.20;;;;;;;25.41;65.82;99904.22;5069112;28;20497;-67
2022/07/30 05:15:45;;;;;;;9.93;7.10;;;;;;;25.49;65.62;99918.41;5052085;28;20064;-68
2022/07/30 05:18:11;;;;;;;10.73;7.40;;;;;;;25.54;65.47;99925.94;5066957;28;20081;-67
2022/07/30 05:20:37;;;;;;;7.40;6.70;;;;;;;25.60;65.01;99934.03;5065761;28;20094;-68
2022/07/30 05:23:02;;;;;;;10.07;7.10;;;;;;;25.67;64.85;99939.41;5051321;28;20028;-68
2022/07/30 05:25:28;;;;;;;8.02;5.68;;;;;;;25.73;64.46;99942.00;5067800;28;20437;-69
2022/07/30 05:27:55;;;;;;;8.77;6.03;;;;;;;25.72;64.20;99928.50;5066785;28;20458;-67
2022/07/30 05:30:21;;;;;;;12.88;7.07;;;;;;;25.85;64.04;99941.97;5076268;28;20074;-67
2022/07/30 05:32:47;;;;;;;9.23;6.50;;;;;;;25.85;63.78;99939.25;5077622;28;20093;-68
2022/07/30 05:35:12;;;;;;;7.05;6.35;;;;;;;25.93;63.50;99945.19;5070175;28;20533;-67
2022/07/30 05:37:38;;;;;;;10.38;6.70;;;;;;;25.99;63.59;99947.00;5084926;28;20036;-68
2022/07/30 05:40:04;;;;;;;10.07;6.80;;;;;;;26.03;63.67;99953.72;5095468;28;20105;-69
2022/07/30 05:42:29;;;;;;;9.05;6.43;;;;;;;26.04;63.51;99960.03;5080381;28;20024;-67
2022/07/30 05:44:55;;;;;;;16.02;7.40;;;;;;;26.02;63.50;99962.19;5069728;28;20043;-68
2022/07/30 05:47:20;;;;;;;8.15;6.18;;;;;;;26.01;63.69;99955.00;5066965;28;20056;-68
2022/07/30 05:49:46;;;;;;;7.82;6.80;;;;;;;25.94;63.75;99951.53;5066692;28;20029;-69
2022/07/30 05:52:11;;;;;;;9.18;6.88;;;;;;;26.00;63.71;99965.19;5066470;28;20044;-69
2022/07/30 05:54:37;;;;;;;8.98;6.97;;;;;;;25.96;63.55;99968.63;5067008;28;20046;-68
2022/07/30 05:57:03;;;;;;;6.70;6.07;;;;;;;25.97;63.56;99970.31;5066064;28;20035;-68
2022/07/30 05:59:28;;;;;;;13.27;7.40;;;;;;;25.92;63.83;99972.94;5048774;28;20036;-68
2022/07/30 06:01:54;;;;;;;10.32;7.18;;;;;;;25.87;63.92;99967.31;5074754;28;20062;-67
2022/07/30 06:04:20;;;;;;;14.98;7.72;;;;;;;25.73;64.37;99953.00;5080483;28;20040;-68
2022/07/30 06:06:45;;;;;;;9.90;6.70;;;;;;;25.77;64.47;99965.22;5084699;28;20040;-68
2022/07/30 06:09:10;;;;;;;9.55;7.40;;;;;;;25.73;64.70;99963.19;5070284;28;20658;-68
2022/07/30 06:11:36;;;;;;;11.10;7.07;;;;;;;25.73;64.76;99960.44;5078213;28;20025;-68
2022/07/30 06:14:01;;;;;;;9.45;7.53;;;;;;;25.74;64.80;99967.59;5066388;28;20471;-68
2022/07/30 06:16:27;;;;;;;9.65;6.75;;;;;;;25.77;64.78;99956.97;5082299;28;20024;-68
2022/07/30 06:18:52;;;;;;;9.25;6.30;;;;;;;25.85;64.20;99951.06;5065981;28;20457;-68
2022/07/30 06:21:18;;;;;;;12.68;6.97;;;;;;;26.02;63.73;99957.50;5066210;28;20032;-68
2022/07/30 06:23:43;;;;;;;14.23;7.25;;;;;;;26.11;63.24;99949.72;5064551;28;20044;-69
2022/07/30 06:26:09;;;;;;;9.73;6.70;;;;;;;26.28;62.63;99948.69;5066313;28;20055;-69
2022/07/30 06:28:34;;;;;;;10.52;6.90;;;;;;;26.48;62.21;99962.03;5071800;28;20467;-69
2022/07/30 06:31:01;;;;;;;7.60;6.80;;;;;;;26.62;62.01;99954.31;5070063;28;20043;-69
2022/07/30 06:33:26;;;;;;;11.60;6.82;;;;;;;26.71;61.55;99947.34;5065842;28;20058;-69
2022/07/30 06:35:52;;;;;;;8.35;6.40;;;;;;;26.95;60.98;99951.63;5075077;28;20044;-68
2022/07/30 06:38:17;;;;;;;12.85;7.07;;;;;;;27.09;60.61;99948.28;5066011;28;20462;-68
2022/07/30 06:40:43;;;;;;;9.52;6.63;;;;;;;27.21;59.55;99942.69;5062445;28;20086;-67
2022/07/30 06:43:08;;;;;;;7.80;6.57;;;;;;;27.31;59.01;99937.38;5067664;28;20028;-67
2022/07/30 06:45:34;;;;;;;9.63;6.70;;;;;;;27.38;59.18;99933.38;5080583;28;20140;-67
2022/07/30 06:48:00;;;;;;;8.10;6.63;;;;;;;27.43;58.69;99938.94;5071392;28;20039;-69
2022/07/30 06:50:26;;;;;;;7.10;6.47;;;;;;;27.43;58.39;99935.34;5065317;28;20020;-68
2022/07/30 06:52:51;;;;;;;16.35;6.95;;;;;;;27.52;58.30;99942.94;5062955;28;20035;-68
2022/07/30 06:55:17;;;;;;;10.38;6.80;;;;;;;27.53;58.03;99924.50;5065206;28;20089;-68
2022/07/30 06:57:42;;;;;;;11.98;7.40;;;;;;;27.68;57.73;99935.69;5054678;28;20127;-68
2022/07/30 07:00:09;;;;;;;10.77;7.50;;;;;;;27.74;57.19;99919.00;5056022;28;20055;-68
2022/07/30 07:02:34;;;;;;;8.02;6.90;;;;;;;27.81;56.74;99919.63;5066876;28;20040;-67
2022/07/30 07:05:00;;;;;;;7.63;6.32;;;;;;;27.94;56.68;99935.81;5060242;28;20028;-67
2022/07/30 07:07:26;;;;;;;8.20;6.90;;;;;;;27.96;56.80;99925.34;5063883;28;20040;-67
2022/07/30 07:09:52;;;;;;;9.18;7.00;;;;;;;28.02;56.60;99926.28;5045931;28;20107;-68
2022/07/30 07:12:17;;;;;;;9.18;7.15;;;;;;;27.98;56.86;99922.34;5065029;28;20036;-67
2022/07/30 07:14:43;;;;;;;9.65;7.18;;;;;;;28.08;56.42;99922.50;5070408;28;20040;-67
2022/07/30 07:17:08;;;;;;;10.13;7.22;;;;;;;28.15;56.62;99915.66;5063446;28;20020;-67
2022/07/30 07:19:34;;;;;;;10.98;7.60;;;;;;;28.26;56.21;99913.84;5078053;28;20433;-67
2022/07/30 07:21:59;;;;;;;9.10;7.57;;;;;;;28.38;55.88;99907.09;5071048;28;20052;-68
2022/07/30 07:24:25;;;;;;;9.38;6.80;;;;;;;28.50;55.37;99904.19;5064454;28;20051;-68
2022/07/30 07:26:50;;;;;;;7.75;7.05;;;;;;;28.64;55.22;99901.84;5084331;28;20028;-68
2022/07/30 07:29:16;;;;;;;11.23;7.25;;;;;;;28.71;54.60;99900.56;5064540;28;20161;-67
2022/07/30 07:31:41;;;;;;;9.40;7.32;;;;;;;28.83;54.08;99892.09;5067611;28;20028;-68
2022/07/30 07:34:07;;;;;;;8.40;7.15;;;;;;;28.96;54.23;99898.00;5046722;28;20043;-68
2022/07/30 07:36:34;;;;;;;8.48;7.60;;;;;;;29.06;53.57;99891.75;5065201;28;20105;-67
2022/07/30 07:38:59;;;;;;;9.85;7.22;;;;;;;29.16;53.46;99891.81;5080368;28;20024;-68
2022/07/30 07:41:25;;;;;;;10.45;7.35;;;;;;;29.32;53.53;99893.59;5076844;28;20456;-68
2022/07/30 07:43:50;;;;;;;9.05;7.75;;;;;;;29.44;52.73;99889.50;5049106;28;20035;-66
2022/07/30 07:46:16;;;;;;;11.20;8.02;;;;;;;29.59;52.22;99886.84;5053094;28;20127;-67
2022/07/30 07:48:43;;;;;;;8.98;7.03;;;;;;;29.68;52.04;99888.03;5065352;28;20051;-68
2022/07/30 07:51:08;;;;;;;8.65;7.75;;;;;;;29.77;51.73;99891.97;5064369;28;20036;-67
2022/07/30 07:53:34;;;;;;;10.23;7.30;;;;;;;29.90;51.46;99885.94;5070516;28;20040;-67
2022/07/30 07:55:59;;;;;;;9.50;7.80;;;;;;;29.98;51.23;99874.31;5065280;28;20048;-68
2022/07/30 07:58:25;;;;;;;11.88;7.47;;;;;;;30.04;51.16;99872.41;5064241;28;20020;-67
2022/07/30 08:00:50;;;;;;;13.23;7.82;;;;;;;30.13;50.87;99868.00;5064575;28;20044;-67
2022/07/30 08:03:16;;;;;;;10.75;7.95;;;;;;;30.16;50.18;99850.88;5063775;28;20028;-67
2022/07/30 08:05:42;;;;;;;20.00;8.15;;;;;;;30.26;50.36;99846.22;5065004;28;20033;-67
2022/07/30 08:08:07;;;;;;;8.30;7.55;;;;;;;30.44;50.13;99856.75;5064181;28;20484;-68
2022/07/30 08:10:32;;;;;;;8.52;7.70;;;;;;;30.59;49.38;99853.16;5063557;28;20056;-67
2022/07/30 08:12:58;;;;;;;8.70;7.90;;;;;;;30.69;49.31;99844.84;5067022;28;20112;-67
2022/07/30 08:15:24;;;;;;;11.15;7.65;;;;;;;30.82;48.88;99849.06;5082778;28;20088;-67
2022/07/30 08:17:49;;;;;;;14.15;8.40;;;;;;;30.89;48.39;99855.97;5064807;28;20505;-67
2022/07/30 08:20:17;;;;;;;11.05;7.80;;;;;;;30.94;48.66;99847.66;5068350;28;20039;-67
2022/07/30 08:22:43;;;;;;;10.85;8.18;;;;;;;31.04;48.04;99849.59;5062975;28;20147;-66
2022/07/30 08:25:09;;;;;;;11.73;7.28;;;;;;;31.12;48.07;99855.41;5065102;28;20108;-66
2022/07/30 08:27:34;;;;;;;10.18;8.00;;;;;;;31.26;47.48;99859.25;5064019;28;20426;-67
2022/07/30 08:30:07;;;;;;;10.40;8.18;;;;;;;31.31;47.57;99866.75;5072723;28;20749;-67
2022/07/30 08:32:33;;;;;;;9.10;8.20;;;;;;;31.34;47.38;99874.50;5065126;28;20024;-67
2022/07/30 08:34:59;;;;;;;8.43;7.57;;;;;;;31.30;47.45;99874.22;5066467;28;20070;-67
2022/07/30 08:37:24;;;;;;;9.18;8.20;;;;;;;31.19;47.50;99869.78;5069969;28;20072;-67
2022/07/30 08:39:50;;;;;;;8.95;8.02;;;;;;;31.16;47.57;99864.81;5065000;28;20048;-67
2022/07/30 08:42:16;;;;;;;11.60;8.52;;;;;;;31.11;48.01;99883.38;5081721;28;20044;-66
2022/07/30 08:44:43;;;;;;;10.07;8.55;;;;;;;31.07;47.93;99887.81;5049330;28;20522;-66
2022/07/30 08:47:14;;;;;;;11.00;8.63;;;;;;;30.93;47.89;99903.34;5070265;28;20097;-66
2022/07/30 08:49:40;;;;;;;13.02;8.63;;;;;;;30.95;48.26;99913.03;5071973;28;20051;-67
2022/07/30 08:52:07;;;;;;;9.90;8.40;;;;;;;30.83;48.87;99917.19;5068500;28;20168;-67
2022/07/30 08:54:34;;;;;;;14.52;8.57;;;;;;;30.74;48.62;99911.38;5068620;28;20039;-66
2022/07/30 08:57:00;;;;;;;14.55;8.63;;;;;;;30.69;48.95;99902.19;5067237;28;20047;-67
2022/07/30 08:59:26;;;;;;;9.80;8.80;;;;;;;30.63;48.95;99903.28;5049828;28;20044;-66
2022/07/30 09:01:51;;;;;;;9.70;8.50;;;;;;;30.67;48.83;99909.94;5068064;28;20053;-68
2022/07/30 09:04:17;;;;;;;10.55;8.60;;;;;;;30.73;48.94;99901.41;5067526;28;20040;-67
2022/07/30 09:06:43;;;;;;;9.05;8.15;;;;;;;30.74;48.72;99903.06;5069610;28;20052;-67
2022/07/30 09:09:09;;;;;;;9.60;8.60;;;;;;;30.70;48.68;99896.38;5073260;28;20060;-67
2022/07/30 09:11:35;;;;;;;12.68;8.73;;;;;;;30.66;48.88;99895.25;5083207;28;20021;-68
2022/07/30 09:14:09;;;;;;;10.18;8.77;;;;;;;30.82;48.70;99908.03;5067149;28;20158;-67
2022/07/30 09:16:35;;;;;;;12.60;7.97;;;;;;;30.88;48.17;99901.38;5067184;28;20052;-66
2022/07/30 09:19:11;;;;;;;9.45;8.20;;;;;;;30.89;48.61;99903.06;5049754;28;20040;-67
2022/07/30 09:21:37;;;;;;;13.65;8.45;;;;;;;30.89;48.50;99894.78;5068281;28;20390;-66
2022/07/30 09:24:12;;;;;;;10.27;8.32;;;;;;;30.93;48.47;99895.03;5073511;28;20044;-67
2022/07/30 09:27:09;;;;;;;9.95;7.93;;;;;;;30.95;48.42;99893.63;5074670;28;20477;-66
2022/07/30 09:29:35;;;;;;;9.82;8.57;;;;;;;30.97;48.18;99896.13;5047104;28;20065;-67
2022/07/30 09:32:06;;;;;;;8.65;7.78;;;;;;;31.01;48.09;99903.59;5083780;28;20025;-67
2022/07/30 09:34:34;;;;;;;12.20;7.78;;;;;;;30.90;48.52;99901.97;5077698;28;20032;-65
2022/07/30 09:37:15;;;;;;;8.68;7.88;;;;;;;30.86;48.65;99900.84;5078778;28;20044;-66
2022/07/30 09:39:42;;;;;;;9.15;7.97;;;;;;;30.78;48.85;99909.69;5065529;28;20048;-66
2022/07/30 09:42:21;;;;;;;10.48;8.15;;;;;;;30.79;48.27;99911.38;5048238;28;20040;-66
2022/07/30 09:44:47;;;;;;;9.93;7.70;;;;;;;30.73;48.34;99909.72;5067369;28;20040;-67
2022/07/30 09:47:32;;;;;;;10.02;7.18;;;;;;;30.58;49.32;99901.34;5076438;28;20028;-66
2022/07/30 09:50:15;;;;;;;13.93;6.30;;;;;;;30.55;49.79;99899.97;5067925;28;20052;-68
2022/07/30 09:52:43;;;;;;;11.40;7.55;;;;;;;30.55;49.79;99912.97;5048624;28;20541;-67
2022/07/30 09:55:10;;;;;;;11.30;7.38;;;;;;;30.47;50.04;99910.75;5065280;28;20124;-68
2022/07/30 09:57:54;;;;;;;18.80;8.07;;;;;;;30.27;50.37;99903.22;5065271;28;20036;-67
2022/07/30 10:00:22;;;;;;;10.82;8.05;;;;;;;30.20;51.27;99907.34;5083502;28;20108;-67
2022/07/30 10:02:49;;;;;;;12.77;7.68;;;;;;;30.19;50.95;99902.94;5067855;28;20066;-67
2022/07/30 10:05:16;;;;;;;8.57;7.15;;;;;;;30.10;51.58;99901.75;5066611;28;20041;-67
2022/07/30 10:07:59;;;;;;;9.90;7.20;;;;;;;30.12;51.62;99900.38;5074222;28;20024;-67
2022/07/30 10:10:27;;;;;;;12.38;7.22;;;;;;;30.18;51.29;99892.97;5066296;28;20041;-67
2022/07/30 10:12:57;;;;;;;9.35;6.80;;;;;;;30.25;51.17;99879.69;5080919;28;20094;-67
2022/07/30 10:15:26;;;;;;;10.02;7.40;;;;;;;30.21;50.94;99859.22;5079454;28;20497;-67
2022/07/30 10:17:52;;;;;;;9.85;7.45;;;;;;;30.35;49.85;99868.66;5066969;28;20040;-67
2022/07/30 10:20:18;;;;;;;11.63;6.63;;;;;;;30.34;50.44;99856.72;5049290;28;20031;-67
2022/07/30 10:22:44;;;;;;;10.38;7.38;;;;;;;30.46;50.39;99878.63;5075610;28;20056;-66
2022/07/30 10:25:10;;;;;;;13.63;7.88;;;;;;;30.43;50.88;99871.69;5067011;28;20477;-67
2022/07/30 10:27:36;;;;;;;14.25;7.20;;;;;;;30.40;50.93;99882.47;5046452;28;20094;-67
2022/07/30 10:30:02;;;;;;;24.00;7.57;;;;;;;30.28;51.40;99890.22;5086717;28;20424;-67
2022/07/30 10:32:28;;;;;;;13.52;6.75;;;;;;;30.10;52.01;99888.75;5068734;28;20044;-68
2022/07/30 10:34:54;;;;;;;22.52;7.10;;;;;;;29.86;52.77;99909.66;5083732;28;20032;-69
2022/07/30 10:37:22;;;;;;;20.17;6.68;;;;;;;29.83;52.84;99913.00;5065990;28;20111;-68
2022/07/30 10:40:04;;;;;;;24.65;6.97;;;;;;;29.67;53.35;99918.72;5067115;28;20039;-68
2022/07/30 10:42:55;;;;;;;11.52;6.43;;;;;;;29.43;53.54;99917.44;5065547;28;20570;-67
2022/07/30 10:45:48;;;;;;;9.55;6.85;;;;;;;29.32;53.60;99926.75;5068243;28;20081;-67
2022/07/30 10:48:17;;;;;;;9.23;6.28;;;;;;;29.32;53.23;99926.75;5009031;28;20862;-67
2022/07/30 10:50:57;;;;;;;15.15;7.03;;;;;;;29.27;53.41;99935.84;5086861;28;20131;-67
2022/07/30 10:53:40;;;;;;;9.35;6.65;;;;;;;29.10;53.48;99920.50;5068636;28;20048;-67
2022/07/30 10:56:19;;;;;;;14.48;6.40;;;;;;;29.17;53.16;99929.44;5076057;28;20036;-68
2022/07/30 10:59:14;;;;;;;9.43;6.35;;;;;;;28.94;54.01;99936.09;5082076;28;20032;-68
2022/07/30 11:01:45;;;;;;;8.10;5.70;;;;;;;28.75;54.73;99947.81;5064704;28;20049;-67
2022/07/30 11:04:24;;;;;;;7.90;5.85;;;;;;;28.68;55.38;99953.53;5052082;28;20490;-68
2022/07/30 11:06:51;;;;;;;7.97;6.70;;;;;;;28.50;54.96;99935.41;5075251;28;20028;-67
2022/07/30 11:09:35;;;;;;;16.70;6.47;;;;;;;28.43;57.39;99928.38;5053141;28;20583;-67
2022/07/30 11:12:02;;;;;;;26.98;7.47;;;;;;;28.41;62.00;99925.88;5075793;28;20085;-69
2022/07/30 11:14:46;;;;;;;17.42;6.70;;;;;;;28.40;65.31;99924.22;5062251;28;20386;-67
2022/07/30 11:17:17;;;;;;;10.13;6.00;;;;;;;28.32;63.07;99927.47;5067560;28;20111;-67
2022/07/30 11:20:01;;;;;;;8.30;6.75;;;;;;;28.18;64.23;99928.13;5082515;28;20020;-67
2022/07/30 11:22:40;;;;;;;7.07;5.60;;;;;;;28.05;61.25;99936.78;5076172;28;20043;-67
2022/07/30 11:25:05;;;;;;;8.55;6.28;;;;;;;27.95;63.94;99923.69;5100380;28;20039;-67
2022/07/30 11:27:49;;;;;;;11.50;7.20;;;;;;;27.84;64.71;99899.81;5070387;28;20076;-67
2022/07/30 11:30:14;;;;;;;10.97;6.70;;;;;;;27.79;65.77;99888.72;5065795;28;20101;-67
2022/07/30 11:32:44;;;;;;;8.02;7.18;;;;;;;27.73;65.38;99864.13;5079058;28;20027;-66
2022/07/30 11:35:21;;;;;;;10.45;7.75;;;;;;;27.55;66.94;99848.75;5074789;28;20507;-66